sensor_id;sensor_type;location;lat;lon;timestamp;temperature;humidity
40151;DHT22;25866;52.420;10.640;2023-12-29T00:01:58;8.80;99.90
40151;DHT22;25866;52.420;10.640;2023-12-29T00:04:27;8.80;99.90
40151;DHT22;25866;52.420;10.640;2023-12-29T00:06:53;8.70;99.90
40151;DHT22;25866;52.420;10.640;2023-12-29T00:09:19;8.70;99.90
40151;DHT22;25866;52.420;10.640;2023-12-29T00:11:47;8.80;99.90
40151;DHT22;25866;52.420;10.640;2023-12-29T00:14:13;8.70;99.90
40151;DHT22;25866;52.420;10.640;2023-12-29T00:16:39;8.70;99.90
40151;DHT22;25866;52.420;10.640;2023-12-29T00:19:05;8.70;99.90
40151;DHT22;25866;52.420;10.640;2023-12-29T00:21:31;8.70;99.90
40151;DHT22;25866;52.420;10.640;2023-12-29T00:23:56;8.70;99.90
40151;DHT22;25866;52.420;10.640;2023-12-29T00:26:23;8.80;99.90
40151;DHT22;25866;52.420;10.640;2023-12-29T00:28:48;8.80;99.90
40151;DHT22;25866;52.420;10.640;2023-12-29T00:31:15;8.80;99.90
40151;DHT22;25866;52.420;10.640;2023-12-29T00:33:44;8.80;99.90
40151;DHT22;25866;52.420;10.640;2023-12-29T00:36:17;8.90;99.90
40151;DHT22;25866;52.420;10.640;2023-12-29T00:38:43;8.90;99.90
40151;DHT22;25866;52.420;10.640;2023-12-29T00:41:09;8.90;99.90
40151;DHT22;25866;52.420;10.640;2023-12-29T00:43:35;8.90;99.90
40151;DHT22;25866;52.420;10.640;2023-12-29T00:46:02;8.80;99.90
40151;DHT22;25866;52.420;10.640;2023-12-29T00:48:29;8.80;99.90
40151;DHT22;25866;52.420;10.640;2023-12-29T00:50:55;8.90;99.90
40151;DHT22;25866;52.420;10.640;2023-12-29T00:53:21;8.90;99.90
40151;DHT22;25866;52.420;10.640;2023-12-29T00:55:46;8.90;99.90
40151;DHT22;25866;52.420;10.640;2023-12-29T00:58:12;8.90;99.90
40151;DHT22;25866;52.420;10.640;2023-12-29T01:00:38;8.90;99.90
40151;DHT22;25866;52.420;10.640;2023-12-29T01:03:04;8.80;99.90
40151;DHT22;25866;52.420;10.640;2023-12-29T01:05:30;8.80;99.90
40151;DHT22;25866;52.420;10.640;2023-12-29T01:07:56;8.80;99.90
40151;DHT22;25866;52.420;10.640;2023-12-29T01:10:22;8.80;99.90
40151;DHT22;25866;52.420;10.640;2023-12-29T01:12:48;8.90;99.90
40151;DHT22;25866;52.420;10.640;2023-12-29T01:15:14;8.80;99.90
40151;DHT22;25866;52.420;10.640;2023-12-29T01:17:40;8.80;99.90
40151;DHT22;25866;52.420;10.640;2023-12-29T01:20:06;8.80;99.90
40151;DHT22;25866;52.420;10.640;2023-12-29T01:22:33;8.80;99.90
40151;DHT22;25866;52.420;10.640;2023-12-29T01:25:00;8.80;99.90
40151;DHT22;25866;52.420;10.640;2023-12-29T01:27:26;8.80;99.90
40151;DHT22;25866;52.420;10.640;2023-12-29T01:29:52;8.80;99.90
40151;DHT22;25866;52.420;10.640;2023-12-29T01:32:19;8.80;99.90
40151;DHT22;25866;52.420;10.640;2023-12-29T01:34:45;8.80;99.90
40151;DHT22;25866;52.420;10.640;2023-12-29T01:37:10;8.80;99.90
40151;DHT22;25866;52.420;10.640;2023-12-29T01:39:36;8.80;99.90
40151;DHT22;25866;52.420;10.640;2023-12-29T01:42:02;8.80;99.90
40151;DHT22;25866;52.420;10.640;2023-12-29T01:44:28;8.80;99.90
40151;DHT22;25866;52.420;10.640;2023-12-29T01:46:58;8.80;99.90
40151;DHT22;25866;52.420;10.640;2023-12-29T01:49:25;8.70;99.90
40151;DHT22;25866;52.420;10.640;2023-12-29T01:51:57;8.70;99.90
40151;DHT22;25866;52.420;10.640;2023-12-29T01:54:25;8.70;99.90
40151;DHT22;25866;52.420;10.640;2023-12-29T01:56:54;8.70;99.90
40151;DHT22;25866;52.420;10.640;2023-12-29T01:59:25;8.60;99.90
40151;DHT22;25866;52.420;10.640;2023-12-29T02:01:51;8.60;99.90
40151;DHT22;25866;52.420;10.640;2023-12-29T02:04:17;8.50;99.90
40151;DHT22;25866;52.420;10.640;2023-12-29T02:06:44;8.40;99.90
40151;DHT22;25866;52.420;10.640;2023-12-29T02:09:11;8.40;99.90
40151;DHT22;25866;52.420;10.640;2023-12-29T02:11:38;8.40;99.90
40151;DHT22;25866;52.420;10.640;2023-12-29T02:14:04;8.40;99.90
40151;DHT22;25866;52.420;10.640;2023-12-29T02:19:39;8.50;99.90
40151;DHT22;25866;52.420;10.640;2023-12-29T02:22:06;8.50;99.90
40151;DHT22;25866;52.420;10.640;2023-12-29T02:24:34;8.60;99.90
40151;DHT22;25866;52.420;10.640;2023-12-29T02:27:18;8.60;99.90
40151;DHT22;25866;52.420;10.640;2023-12-29T02:30:02;8.50;99.90
40151;DHT22;25866;52.420;10.640;2023-12-29T02:32:30;8.50;99.90
40151;DHT22;25866;52.420;10.640;2023-12-29T02:34:57;8.50;99.90
40151;DHT22;25866;52.420;10.640;2023-12-29T02:37:26;8.50;99.90
40151;DHT22;25866;52.420;10.640;2023-12-29T02:39:52;8.50;99.90
40151;DHT22;25866;52.420;10.640;2023-12-29T02:42:18;8.50;99.90
40151;DHT22;25866;52.420;10.640;2023-12-29T02:44:44;8.40;99.90
40151;DHT22;25866;52.420;10.640;2023-12-29T02:47:10;8.40;99.90
40151;DHT22;25866;52.420;10.640;2023-12-29T02:49:35;8.50;99.90
40151;DHT22;25866;52.420;10.640;2023-12-29T02:52:01;8.40;99.90
40151;DHT22;25866;52.420;10.640;2023-12-29T02:54:27;8.40;99.90
40151;DHT22;25866;52.420;10.640;2023-12-29T02:56:53;8.40;99.90
40151;DHT22;25866;52.420;10.640;2023-12-29T02:59:18;8.40;99.90
40151;DHT22;25866;52.420;10.640;2023-12-29T03:01:44;8.40;99.90
40151;DHT22;25866;52.420;10.640;2023-12-29T03:04:10;8.50;99.90
40151;DHT22;25866;52.420;10.640;2023-12-29T03:06:36;8.50;99.90
40151;DHT22;25866;52.420;10.640;2023-12-29T03:09:02;8.50;99.90
40151;DHT22;25866;52.420;10.640;2023-12-29T03:11:28;8.50;99.90
40151;DHT22;25866;52.420;10.640;2023-12-29T03:13:54;8.50;99.90
40151;DHT22;25866;52.420;10.640;2023-12-29T03:16:20;8.60;99.90
40151;DHT22;25866;52.420;10.640;2023-12-29T03:18:46;8.60;99.90
40151;DHT22;25866;52.420;10.640;2023-12-29T03:21:13;8.60;99.90
40151;DHT22;25866;52.420;10.640;2023-12-29T03:23:38;8.60;99.90
40151;DHT22;25866;52.420;10.640;2023-12-29T03:26:04;8.60;99.90
40151;DHT22;25866;52.420;10.640;2023-12-29T03:28:30;8.60;99.90
40151;DHT22;25866;52.420;10.640;2023-12-29T03:30:56;8.60;99.90
40151;DHT22;25866;52.420;10.640;2023-12-29T03:36:05;8.60;99.90
40151;DHT22;25866;52.420;10.640;2023-12-29T03:38:31;8.60;99.90
40151;DHT22;25866;52.420;10.640;2023-12-29T03:40:59;8.60;99.90
40151;DHT22;25866;52.420;10.640;2023-12-29T03:43:24;8.60;99.90
40151;DHT22;25866;52.420;10.640;2023-12-29T03:45:58;8.60;99.90
40151;DHT22;25866;52.420;10.640;2023-12-29T03:48:24;8.50;99.90
40151;DHT22;25866;52.420;10.640;2023-12-29T03:50:50;8.50;99.90
40151;DHT22;25866;52.420;10.640;2023-12-29T03:53:16;8.40;99.90
40151;DHT22;25866;52.420;10.640;2023-12-29T03:55:42;8.40;99.90
40151;DHT22;25866;52.420;10.640;2023-12-29T03:58:18;8.40;99.90
40151;DHT22;25866;52.420;10.640;2023-12-29T04:00:43;8.40;99.90
40151;DHT22;25866;52.420;10.640;2023-12-29T04:03:09;8.40;99.90
40151;DHT22;25866;52.420;10.640;2023-12-29T04:05:35;8.50;99.90
40151;DHT22;25866;52.420;10.640;2023-12-29T04:08:01;8.50;99.90
40151;DHT22;25866;52.420;10.640;2023-12-29T04:10:27;8.60;99.90
40151;DHT22;25866;52.420;10.640;2023-12-29T04:12:52;8.50;99.90
40151;DHT22;25866;52.420;10.640;2023-12-29T04:15:18;8.60;99.90
40151;DHT22;25866;52.420;10.640;2023-12-29T04:18:03;8.60;99.90
40151;DHT22;25866;52.420;10.640;2023-12-29T04:20:28;8.70;99.90
40151;DHT22;25866;52.420;10.640;2023-12-29T04:22:54;8.70;99.90
40151;DHT22;25866;52.420;10.640;2023-12-29T04:25:20;8.70;99.90
40151;DHT22;25866;52.420;10.640;2023-12-29T04:27:50;8.60;99.90
40151;DHT22;25866;52.420;10.640;2023-12-29T04:30:16;8.70;99.90
40151;DHT22;25866;52.420;10.640;2023-12-29T04:32:42;8.70;99.90
40151;DHT22;25866;52.420;10.640;2023-12-29T04:35:08;8.70;99.90
40151;DHT22;25866;52.420;10.640;2023-12-29T04:37:41;8.70;99.90
40151;DHT22;25866;52.420;10.640;2023-12-29T04:40:07;8.70;99.90
40151;DHT22;25866;52.420;10.640;2023-12-29T04:42:34;8.70;99.90
40151;DHT22;25866;52.420;10.640;2023-12-29T04:45:00;8.70;99.90
40151;DHT22;25866;52.420;10.640;2023-12-29T04:47:26;8.70;99.90
40151;DHT22;25866;52.420;10.640;2023-12-29T04:49:55;8.60;99.90
40151;DHT22;25866;52.420;10.640;2023-12-29T04:52:21;8.60;99.90
40151;DHT22;25866;52.420;10.640;2023-12-29T04:54:46;8.60;99.90
40151;DHT22;25866;52.420;10.640;2023-12-29T04:57:14;8.60;99.90
40151;DHT22;25866;52.420;10.640;2023-12-29T04:59:40;8.50;99.90
40151;DHT22;25866;52.420;10.640;2023-12-29T05:02:06;8.50;99.90
40151;DHT22;25866;52.420;10.640;2023-12-29T05:04:32;8.40;99.90
40151;DHT22;25866;52.420;10.640;2023-12-29T05:06:59;8.40;99.90
40151;DHT22;25866;52.420;10.640;2023-12-29T05:09:25;8.50;99.90
40151;DHT22;25866;52.420;10.640;2023-12-29T05:11:52;8.50;99.90
40151;DHT22;25866;52.420;10.640;2023-12-29T05:14:18;8.50;99.90
40151;DHT22;25866;52.420;10.640;2023-12-29T05:16:44;8.50;99.90
40151;DHT22;25866;52.420;10.640;2023-12-29T05:19:10;8.50;99.90
40151;DHT22;25866;52.420;10.640;2023-12-29T05:21:35;8.50;99.90
40151;DHT22;25866;52.420;10.640;2023-12-29T05:24:01;8.50;99.90
40151;DHT22;25866;52.420;10.640;2023-12-29T05:26:27;8.50;99.90
40151;DHT22;25866;52.420;10.640;2023-12-29T05:28:53;8.50;99.90
40151;DHT22;25866;52.420;10.640;2023-12-29T05:31:19;8.50;99.90
40151;DHT22;25866;52.420;10.640;2023-12-29T05:33:44;8.50;99.90
40151;DHT22;25866;52.420;10.640;2023-12-29T05:36:10;8.50;99.90
40151;DHT22;25866;52.420;10.640;2023-12-29T05:38:43;8.40;99.90
40151;DHT22;25866;52.420;10.640;2023-12-29T05:41:13;8.40;99.90
40151;DHT22;25866;52.420;10.640;2023-12-29T05:43:39;8.40;99.90
40151;DHT22;25866;52.420;10.640;2023-12-29T05:46:14;8.40;99.90
40151;DHT22;25866;52.420;10.640;2023-12-29T05:48:41;8.50;99.90
40151;DHT22;25866;52.420;10.640;2023-12-29T05:51:10;8.50;99.90
40151;DHT22;25866;52.420;10.640;2023-12-29T05:53:36;8.50;99.90
40151;DHT22;25866;52.420;10.640;2023-12-29T05:56:03;8.40;99.90
40151;DHT22;25866;52.420;10.640;2023-12-29T05:58:30;8.40;99.90
40151;DHT22;25866;52.420;10.640;2023-12-29T06:00:55;8.30;99.90
40151;DHT22;25866;52.420;10.640;2023-12-29T06:03:21;8.20;99.90
40151;DHT22;25866;52.420;10.640;2023-12-29T06:05:48;8.20;99.90
40151;DHT22;25866;52.420;10.640;2023-12-29T06:08:14;8.10;99.90
40151;DHT22;25866;52.420;10.640;2023-12-29T06:10:40;8.20;99.90
40151;DHT22;25866;52.420;10.640;2023-12-29T06:13:07;8.20;99.90
40151;DHT22;25866;52.420;10.640;2023-12-29T06:15:33;8.20;99.90
40151;DHT22;25866;52.420;10.640;2023-12-29T06:18:06;8.20;99.90
40151;DHT22;25866;52.420;10.640;2023-12-29T06:20:32;8.20;99.90
40151;DHT22;25866;52.420;10.640;2023-12-29T06:22:58;8.20;99.90
40151;DHT22;25866;52.420;10.640;2023-12-29T06:25:25;8.20;99.90
40151;DHT22;25866;52.420;10.640;2023-12-29T06:27:50;8.20;99.90
40151;DHT22;25866;52.420;10.640;2023-12-29T06:30:16;8.30;99.90
40151;DHT22;25866;52.420;10.640;2023-12-29T06:32:42;8.30;99.90
40151;DHT22;25866;52.420;10.640;2023-12-29T06:35:08;8.30;99.90
40151;DHT22;25866;52.420;10.640;2023-12-29T06:37:44;8.30;99.90
40151;DHT22;25866;52.420;10.640;2023-12-29T06:40:11;8.20;99.90
40151;DHT22;25866;52.420;10.640;2023-12-29T06:42:37;8.20;99.90
40151;DHT22;25866;52.420;10.640;2023-12-29T06:45:04;8.30;99.90
40151;DHT22;25866;52.420;10.640;2023-12-29T06:47:33;8.30;99.90
40151;DHT22;25866;52.420;10.640;2023-12-29T06:49:59;8.30;99.90
40151;DHT22;25866;52.420;10.640;2023-12-29T06:52:25;8.20;99.90
40151;DHT22;25866;52.420;10.640;2023-12-29T06:54:52;8.20;99.90
40151;DHT22;25866;52.420;10.640;2023-12-29T06:57:17;8.30;99.90
40151;DHT22;25866;52.420;10.640;2023-12-29T06:59:43;8.20;99.90
40151;DHT22;25866;52.420;10.640;2023-12-29T07:02:09;8.30;99.90
40151;DHT22;25866;52.420;10.640;2023-12-29T07:04:35;8.20;99.90
40151;DHT22;25866;52.420;10.640;2023-12-29T07:07:01;8.20;99.90
40151;DHT22;25866;52.420;10.640;2023-12-29T07:09:27;8.20;99.90
40151;DHT22;25866;52.420;10.640;2023-12-29T07:11:54;8.20;99.90
40151;DHT22;25866;52.420;10.640;2023-12-29T07:14:20;8.10;99.90
40151;DHT22;25866;52.420;10.640;2023-12-29T07:16:45;8.10;99.90
40151;DHT22;25866;52.420;10.640;2023-12-29T07:19:22;8.10;99.90
40151;DHT22;25866;52.420;10.640;2023-12-29T07:21:54;8.10;99.90
40151;DHT22;25866;52.420;10.640;2023-12-29T07:24:20;8.20;99.90
40151;DHT22;25866;52.420;10.640;2023-12-29T07:26:46;8.20;99.90
40151;DHT22;25866;52.420;10.640;2023-12-29T07:29:12;8.20;99.90
40151;DHT22;25866;52.420;10.640;2023-12-29T07:31:41;8.20;99.90
40151;DHT22;25866;52.420;10.640;2023-12-29T07:34:06;8.10;99.90
40151;DHT22;25866;52.420;10.640;2023-12-29T07:36:32;8.20;99.90
40151;DHT22;25866;52.420;10.640;2023-12-29T07:39:00;8.20;99.90
40151;DHT22;25866;52.420;10.640;2023-12-29T07:41:26;8.20;99.90
40151;DHT22;25866;52.420;10.640;2023-12-29T07:43:53;8.20;99.90
40151;DHT22;25866;52.420;10.640;2023-12-29T07:46:26;8.20;99.90
40151;DHT22;25866;52.420;10.640;2023-12-29T07:48:53;8.30;99.90
40151;DHT22;25866;52.420;10.640;2023-12-29T07:51:19;8.30;99.90
40151;DHT22;25866;52.420;10.640;2023-12-29T07:53:47;8.30;99.90
40151;DHT22;25866;52.420;10.640;2023-12-29T07:56:13;8.40;99.90
40151;DHT22;25866;52.420;10.640;2023-12-29T07:58:43;8.40;99.90
40151;DHT22;25866;52.420;10.640;2023-12-29T08:01:09;8.50;99.90
40151;DHT22;25866;52.420;10.640;2023-12-29T08:03:35;8.50;99.90
40151;DHT22;25866;52.420;10.640;2023-12-29T08:06:02;8.50;99.90
40151;DHT22;25866;52.420;10.640;2023-12-29T08:08:29;8.60;99.90
40151;DHT22;25866;52.420;10.640;2023-12-29T08:10:54;8.70;99.90
40151;DHT22;25866;52.420;10.640;2023-12-29T08:13:21;8.80;99.90
40151;DHT22;25866;52.420;10.640;2023-12-29T08:15:47;8.90;99.90
40151;DHT22;25866;52.420;10.640;2023-12-29T08:18:13;8.90;99.90
40151;DHT22;25866;52.420;10.640;2023-12-29T08:20:39;9.00;99.90
40151;DHT22;25866;52.420;10.640;2023-12-29T08:23:05;9.00;99.90
40151;DHT22;25866;52.420;10.640;2023-12-29T08:25:31;9.10;99.90
40151;DHT22;25866;52.420;10.640;2023-12-29T08:27:58;9.20;99.90
40151;DHT22;25866;52.420;10.640;2023-12-29T08:30:24;9.30;99.90
40151;DHT22;25866;52.420;10.640;2023-12-29T08:32:50;9.30;99.90
40151;DHT22;25866;52.420;10.640;2023-12-29T08:35:16;9.30;99.90
40151;DHT22;25866;52.420;10.640;2023-12-29T08:37:42;9.40;99.90
40151;DHT22;25866;52.420;10.640;2023-12-29T08:40:09;9.40;99.90
40151;DHT22;25866;52.420;10.640;2023-12-29T08:42:35;9.40;99.90
40151;DHT22;25866;52.420;10.640;2023-12-29T08:45:01;9.40;99.90
40151;DHT22;25866;52.420;10.640;2023-12-29T08:47:28;9.50;99.90
40151;DHT22;25866;52.420;10.640;2023-12-29T08:49:54;9.50;99.90
40151;DHT22;25866;52.420;10.640;2023-12-29T08:52:21;9.60;99.90
40151;DHT22;25866;52.420;10.640;2023-12-29T08:54:46;9.60;99.90
40151;DHT22;25866;52.420;10.640;2023-12-29T08:57:13;9.70;99.90
40151;DHT22;25866;52.420;10.640;2023-12-29T08:59:40;9.70;99.90
40151;DHT22;25866;52.420;10.640;2023-12-29T09:02:06;9.70;99.90
40151;DHT22;25866;52.420;10.640;2023-12-29T09:04:32;9.80;99.90
40151;DHT22;25866;52.420;10.640;2023-12-29T09:06:58;9.80;99.90
40151;DHT22;25866;52.420;10.640;2023-12-29T09:09:24;9.90;99.90
40151;DHT22;25866;52.420;10.640;2023-12-29T09:11:53;9.90;99.90
40151;DHT22;25866;52.420;10.640;2023-12-29T09:14:19;9.90;99.90
40151;DHT22;25866;52.420;10.640;2023-12-29T09:16:45;10.00;99.90
40151;DHT22;25866;52.420;10.640;2023-12-29T09:19:12;10.00;99.90
40151;DHT22;25866;52.420;10.640;2023-12-29T09:21:39;10.00;99.90
40151;DHT22;25866;52.420;10.640;2023-12-29T09:24:07;10.00;99.90
40151;DHT22;25866;52.420;10.640;2023-12-29T09:26:33;10.00;99.90
40151;DHT22;25866;52.420;10.640;2023-12-29T09:28:59;10.00;99.90
40151;DHT22;25866;52.420;10.640;2023-12-29T09:31:25;10.00;99.90
40151;DHT22;25866;52.420;10.640;2023-12-29T09:33:52;10.00;99.90
40151;DHT22;25866;52.420;10.640;2023-12-29T09:36:18;10.00;99.90
40151;DHT22;25866;52.420;10.640;2023-12-29T09:38:44;10.00;99.90
40151;DHT22;25866;52.420;10.640;2023-12-29T09:41:14;10.00;99.90
40151;DHT22;25866;52.420;10.640;2023-12-29T09:43:41;10.10;99.90
40151;DHT22;25866;52.420;10.640;2023-12-29T09:46:10;10.10;99.90
40151;DHT22;25866;52.420;10.640;2023-12-29T09:48:38;10.10;99.90
40151;DHT22;25866;52.420;10.640;2023-12-29T09:51:06;10.10;99.90
40151;DHT22;25866;52.420;10.640;2023-12-29T09:53:34;10.20;99.90
40151;DHT22;25866;52.420;10.640;2023-12-29T09:56:04;10.20;99.90
40151;DHT22;25866;52.420;10.640;2023-12-29T09:58:31;10.20;99.90
40151;DHT22;25866;52.420;10.640;2023-12-29T10:00:58;10.20;99.90
40151;DHT22;25866;52.420;10.640;2023-12-29T10:03:24;10.10;99.90
40151;DHT22;25866;52.420;10.640;2023-12-29T10:05:51;10.00;99.90
40151;DHT22;25866;52.420;10.640;2023-12-29T10:08:21;10.00;99.90
40151;DHT22;25866;52.420;10.640;2023-12-29T10:10:48;10.10;99.90
40151;DHT22;25866;52.420;10.640;2023-12-29T10:13:16;10.10;99.90
40151;DHT22;25866;52.420;10.640;2023-12-29T10:15:49;10.00;99.90
40151;DHT22;25866;52.420;10.640;2023-12-29T10:18:35;10.00;99.90
40151;DHT22;25866;52.420;10.640;2023-12-29T10:21:33;9.90;99.90
40151;DHT22;25866;52.420;10.640;2023-12-29T10:24:04;9.80;99.90
40151;DHT22;25866;52.420;10.640;2023-12-29T10:26:32;9.70;99.90
40151;DHT22;25866;52.420;10.640;2023-12-29T10:28:59;9.70;99.90
40151;DHT22;25866;52.420;10.640;2023-12-29T10:31:25;9.60;99.90
40151;DHT22;25866;52.420;10.640;2023-12-29T10:33:51;9.50;99.90
40151;DHT22;25866;52.420;10.640;2023-12-29T10:36:17;9.30;99.90
40151;DHT22;25866;52.420;10.640;2023-12-29T10:38:43;9.20;99.90
40151;DHT22;25866;52.420;10.640;2023-12-29T10:43:40;8.90;99.90
40151;DHT22;25866;52.420;10.640;2023-12-29T10:46:08;8.80;99.90
40151;DHT22;25866;52.420;10.640;2023-12-29T10:48:35;8.70;99.90
40151;DHT22;25866;52.420;10.640;2023-12-29T10:51:03;8.70;99.90
40151;DHT22;25866;52.420;10.640;2023-12-29T10:53:34;8.70;99.90
40151;DHT22;25866;52.420;10.640;2023-12-29T10:56:00;8.60;99.90
40151;DHT22;25866;52.420;10.640;2023-12-29T10:58:30;8.60;99.90
40151;DHT22;25866;52.420;10.640;2023-12-29T11:00:57;8.60;99.90
40151;DHT22;25866;52.420;10.640;2023-12-29T11:03:23;8.50;99.90
40151;DHT22;25866;52.420;10.640;2023-12-29T11:05:51;8.50;99.90
40151;DHT22;25866;52.420;10.640;2023-12-29T11:08:25;8.50;99.90
40151;DHT22;25866;52.420;10.640;2023-12-29T11:10:54;8.50;99.90
40151;DHT22;25866;52.420;10.640;2023-12-29T11:13:20;8.50;99.90
40151;DHT22;25866;52.420;10.640;2023-12-29T11:15:47;8.40;99.90
40151;DHT22;25866;52.420;10.640;2023-12-29T11:18:15;8.40;99.90
40151;DHT22;25866;52.420;10.640;2023-12-29T11:20:42;8.40;99.90
40151;DHT22;25866;52.420;10.640;2023-12-29T11:23:10;8.40;99.90
40151;DHT22;25866;52.420;10.640;2023-12-29T11:25:43;8.30;99.90
40151;DHT22;25866;52.420;10.640;2023-12-29T11:28:11;8.40;99.90
40151;DHT22;25866;52.420;10.640;2023-12-29T11:30:37;8.30;99.90
40151;DHT22;25866;52.420;10.640;2023-12-29T11:33:30;8.30;99.90
40151;DHT22;25866;52.420;10.640;2023-12-29T11:36:10;8.40;99.90
40151;DHT22;25866;52.420;10.640;2023-12-29T11:44:02;8.40;99.90
40151;DHT22;25866;52.420;10.640;2023-12-29T11:46:43;8.40;99.90
40151;DHT22;25866;52.420;10.640;2023-12-29T11:49:10;8.50;99.90
40151;DHT22;25866;52.420;10.640;2023-12-29T11:51:39;8.50;99.90
40151;DHT22;25866;52.420;10.640;2023-12-29T11:54:06;8.60;99.90
40151;DHT22;25866;52.420;10.640;2023-12-29T11:59:22;8.60;99.90
40151;DHT22;25866;52.420;10.640;2023-12-29T12:01:57;8.70;99.90
40151;DHT22;25866;52.420;10.640;2023-12-29T12:04:43;8.70;99.90
40151;DHT22;25866;52.420;10.640;2023-12-29T12:07:17;8.80;99.90
40151;DHT22;25866;52.420;10.640;2023-12-29T12:12:47;8.90;99.90
40151;DHT22;25866;52.420;10.640;2023-12-29T12:17:56;8.90;99.90
40151;DHT22;25866;52.420;10.640;2023-12-29T12:20:22;9.00;99.90
40151;DHT22;25866;52.420;10.640;2023-12-29T12:22:58;9.00;99.90
40151;DHT22;25866;52.420;10.640;2023-12-29T12:25:29;9.10;99.90
40151;DHT22;25866;52.420;10.640;2023-12-29T12:27:58;9.10;99.90
40151;DHT22;25866;52.420;10.640;2023-12-29T12:30:24;9.10;99.90
40151;DHT22;25866;52.420;10.640;2023-12-29T12:33:00;9.10;99.90
40151;DHT22;25866;52.420;10.640;2023-12-29T12:35:26;9.20;99.90
40151;DHT22;25866;52.420;10.640;2023-12-29T12:40:37;9.30;99.90
40151;DHT22;25866;52.420;10.640;2023-12-29T12:43:04;9.30;99.90
40151;DHT22;25866;52.420;10.640;2023-12-29T12:45:34;9.40;99.90
40151;DHT22;25866;52.420;10.640;2023-12-29T12:48:13;9.40;99.90
40151;DHT22;25866;52.420;10.640;2023-12-29T12:50:46;9.40;99.90
40151;DHT22;25866;52.420;10.640;2023-12-29T12:53:13;9.40;99.90
40151;DHT22;25866;52.420;10.640;2023-12-29T12:55:50;9.50;99.90
40151;DHT22;25866;52.420;10.640;2023-12-29T12:58:20;9.50;99.90
40151;DHT22;25866;52.420;10.640;2023-12-29T13:00:50;9.50;99.90
40151;DHT22;25866;52.420;10.640;2023-12-29T13:03:16;9.50;99.90
40151;DHT22;25866;52.420;10.640;2023-12-29T13:05:43;9.50;99.90
40151;DHT22;25866;52.420;10.640;2023-12-29T13:08:09;9.60;99.90
40151;DHT22;25866;52.420;10.640;2023-12-29T13:10:41;9.50;99.90
40151;DHT22;25866;52.420;10.640;2023-12-29T13:13:11;9.50;99.90
40151;DHT22;25866;52.420;10.640;2023-12-29T13:15:51;9.40;99.90
40151;DHT22;25866;52.420;10.640;2023-12-29T13:18:29;9.30;99.90
40151;DHT22;25866;52.420;10.640;2023-12-29T13:20:57;9.20;99.90
40151;DHT22;25866;52.420;10.640;2023-12-29T13:23:27;9.20;99.90
40151;DHT22;25866;52.420;10.640;2023-12-29T13:25:56;9.20;99.90
40151;DHT22;25866;52.420;10.640;2023-12-29T13:28:22;9.10;99.90
40151;DHT22;25866;52.420;10.640;2023-12-29T13:30:51;9.20;99.90
40151;DHT22;25866;52.420;10.640;2023-12-29T13:36:19;9.20;99.90
40151;DHT22;25866;52.420;10.640;2023-12-29T13:39:03;9.30;99.90
40151;DHT22;25866;52.420;10.640;2023-12-29T13:41:33;9.30;99.90
40151;DHT22;25866;52.420;10.640;2023-12-29T13:43:59;9.30;99.90
40151;DHT22;25866;52.420;10.640;2023-12-29T13:46:26;9.30;99.90
40151;DHT22;25866;52.420;10.640;2023-12-29T13:48:53;9.40;99.90
40151;DHT22;25866;52.420;10.640;2023-12-29T13:51:28;9.30;99.90
40151;DHT22;25866;52.420;10.640;2023-12-29T13:54:02;9.40;99.90
40151;DHT22;25866;52.420;10.640;2023-12-29T13:56:29;9.40;99.90
40151;DHT22;25866;52.420;10.640;2023-12-29T13:58:55;9.40;99.90
40151;DHT22;25866;52.420;10.640;2023-12-29T14:01:21;9.50;99.90
40151;DHT22;25866;52.420;10.640;2023-12-29T14:03:55;9.50;99.90
40151;DHT22;25866;52.420;10.640;2023-12-29T14:06:31;9.50;99.90
40151;DHT22;25866;52.420;10.640;2023-12-29T14:08:57;9.40;99.90
40151;DHT22;25866;52.420;10.640;2023-12-29T14:11:23;9.40;99.90
40151;DHT22;25866;52.420;10.640;2023-12-29T14:13:49;9.40;99.90
40151;DHT22;25866;52.420;10.640;2023-12-29T14:16:15;9.40;99.90
40151;DHT22;25866;52.420;10.640;2023-12-29T14:24:10;9.50;99.90
40151;DHT22;25866;52.420;10.640;2023-12-29T14:26:40;9.50;99.90
40151;DHT22;25866;52.420;10.640;2023-12-29T14:29:10;9.50;99.90
40151;DHT22;25866;52.420;10.640;2023-12-29T14:31:41;9.50;99.90
40151;DHT22;25866;52.420;10.640;2023-12-29T14:34:08;9.50;99.90
40151;DHT22;25866;52.420;10.640;2023-12-29T14:36:35;9.50;99.90
40151;DHT22;25866;52.420;10.640;2023-12-29T14:39:03;9.60;99.90
40151;DHT22;25866;52.420;10.640;2023-12-29T14:41:29;9.60;99.90
40151;DHT22;25866;52.420;10.640;2023-12-29T14:43:55;9.60;99.90
40151;DHT22;25866;52.420;10.640;2023-12-29T14:46:22;9.60;99.90
40151;DHT22;25866;52.420;10.640;2023-12-29T14:48:48;9.60;99.90
40151;DHT22;25866;52.420;10.640;2023-12-29T14:51:14;9.60;99.90
40151;DHT22;25866;52.420;10.640;2023-12-29T14:53:45;9.60;99.90
40151;DHT22;25866;52.420;10.640;2023-12-29T14:56:13;9.60;99.90
40151;DHT22;25866;52.420;10.640;2023-12-29T14:58:40;9.60;99.90
40151;DHT22;25866;52.420;10.640;2023-12-29T15:01:06;9.60;99.90
40151;DHT22;25866;52.420;10.640;2023-12-29T15:03:33;9.60;99.90
40151;DHT22;25866;52.420;10.640;2023-12-29T15:05:59;9.70;99.90
40151;DHT22;25866;52.420;10.640;2023-12-29T15:08:26;9.70;99.90
40151;DHT22;25866;52.420;10.640;2023-12-29T15:10:54;9.70;99.90
40151;DHT22;25866;52.420;10.640;2023-12-29T15:13:20;9.70;99.90
40151;DHT22;25866;52.420;10.640;2023-12-29T15:15:46;9.70;99.90
40151;DHT22;25866;52.420;10.640;2023-12-29T15:18:12;9.70;99.90
40151;DHT22;25866;52.420;10.640;2023-12-29T15:20:38;9.80;99.90
40151;DHT22;25866;52.420;10.640;2023-12-29T15:23:04;9.80;99.90
40151;DHT22;25866;52.420;10.640;2023-12-29T15:25:29;9.80;99.90
40151;DHT22;25866;52.420;10.640;2023-12-29T15:27:55;9.80;99.90
40151;DHT22;25866;52.420;10.640;2023-12-29T15:30:22;9.80;99.90
40151;DHT22;25866;52.420;10.640;2023-12-29T15:32:47;9.80;99.90
40151;DHT22;25866;52.420;10.640;2023-12-29T15:35:13;9.80;99.90
40151;DHT22;25866;52.420;10.640;2023-12-29T15:37:42;9.80;99.90
40151;DHT22;25866;52.420;10.640;2023-12-29T15:40:08;9.70;99.90
40151;DHT22;25866;52.420;10.640;2023-12-29T15:42:35;9.70;99.90
40151;DHT22;25866;52.420;10.640;2023-12-29T15:45:01;9.70;99.90
40151;DHT22;25866;52.420;10.640;2023-12-29T15:47:26;9.80;99.90
40151;DHT22;25866;52.420;10.640;2023-12-29T15:49:52;9.80;99.90
40151;DHT22;25866;52.420;10.640;2023-12-29T15:52:18;9.70;99.90
40151;DHT22;25866;52.420;10.640;2023-12-29T15:54:45;9.70;99.90
40151;DHT22;25866;52.420;10.640;2023-12-29T15:57:11;9.60;99.90
40151;DHT22;25866;52.420;10.640;2023-12-29T15:59:43;9.70;99.90
40151;DHT22;25866;52.420;10.640;2023-12-29T16:02:10;9.60;99.90
40151;DHT22;25866;52.420;10.640;2023-12-29T16:04:37;9.60;99.90
40151;DHT22;25866;52.420;10.640;2023-12-29T16:07:03;9.60;99.90